sensor_id;sensor_type;location;lat;lon;timestamp;temperature;humidity
610;DHT22;292;48.800;9.216;2023-08-12T00:02:15;25.00;67.20
610;DHT22;292;48.800;9.216;2023-08-12T00:04:42;25.00;67.30
610;DHT22;292;48.800;9.216;2023-08-12T00:07:09;25.00;67.50
610;DHT22;292;48.800;9.216;2023-08-12T00:09:36;25.00;67.60
610;DHT22;292;48.800;9.216;2023-08-12T00:12:04;25.00;67.60
610;DHT22;292;48.800;9.216;2023-08-12T00:14:31;25.00;67.70
610;DHT22;292;48.800;9.216;2023-08-12T00:16:59;24.90;67.70
610;DHT22;292;48.800;9.216;2023-08-12T00:19:26;24.90;67.90
610;DHT22;292;48.800;9.216;2023-08-12T00:21:53;24.80;67.90
610;DHT22;292;48.800;9.216;2023-08-12T00:24:20;24.80;67.90
610;DHT22;292;48.800;9.216;2023-08-12T00:26:47;24.80;68.00
610;DHT22;292;48.800;9.216;2023-08-12T00:29:15;24.70;68.00
610;DHT22;292;48.800;9.216;2023-08-12T00:31:41;24.70;68.20
610;DHT22;292;48.800;9.216;2023-08-12T00:34:10;24.70;68.50
610;DHT22;292;48.800;9.216;2023-08-12T00:36:37;24.70;68.60
610;DHT22;292;48.800;9.216;2023-08-12T00:39:04;24.70;68.70
610;DHT22;292;48.800;9.216;2023-08-12T00:41:31;24.60;68.70
610;DHT22;292;48.800;9.216;2023-08-12T00:43:58;24.60;69.00
610;DHT22;292;48.800;9.216;2023-08-12T00:46:25;24.60;68.60
610;DHT22;292;48.800;9.216;2023-08-12T00:48:52;24.60;68.30
610;DHT22;292;48.800;9.216;2023-08-12T00:51:21;24.50;68.30
610;DHT22;292;48.800;9.216;2023-08-12T00:53:48;24.40;68.20
610;DHT22;292;48.800;9.216;2023-08-12T00:56:17;24.40;68.30
610;DHT22;292;48.800;9.216;2023-08-12T00:58:45;24.40;68.30
610;DHT22;292;48.800;9.216;2023-08-12T01:01:12;24.30;68.30
610;DHT22;292;48.800;9.216;2023-08-12T01:03:40;24.30;68.20
610;DHT22;292;48.800;9.216;2023-08-12T01:06:07;24.30;68.30
610;DHT22;292;48.800;9.216;2023-08-12T01:08:36;24.30;68.60
610;DHT22;292;48.800;9.216;2023-08-12T01:11:07;24.20;68.70
610;DHT22;292;48.800;9.216;2023-08-12T01:13:43;24.20;68.70
610;DHT22;292;48.800;9.216;2023-08-12T01:16:13;24.20;68.90
610;DHT22;292;48.800;9.216;2023-08-12T01:18:43;24.10;68.70
610;DHT22;292;48.800;9.216;2023-08-12T01:21:15;24.10;68.60
610;DHT22;292;48.800;9.216;2023-08-12T01:23:44;24.00;68.60
610;DHT22;292;48.800;9.216;2023-08-12T01:26:11;24.00;68.70
610;DHT22;292;48.800;9.216;2023-08-12T01:28:38;23.90;68.70
610;DHT22;292;48.800;9.216;2023-08-12T01:31:08;23.90;68.90
610;DHT22;292;48.800;9.216;2023-08-12T01:33:42;23.80;69.20
610;DHT22;292;48.800;9.216;2023-08-12T01:36:15;23.70;69.30
610;DHT22;292;48.800;9.216;2023-08-12T01:38:45;23.70;69.50
610;DHT22;292;48.800;9.216;2023-08-12T01:41:13;23.70;69.60
610;DHT22;292;48.800;9.216;2023-08-12T01:43:42;23.60;69.90
610;DHT22;292;48.800;9.216;2023-08-12T01:46:09;23.60;70.00
610;DHT22;292;48.800;9.216;2023-08-12T01:48:37;23.60;70.20
610;DHT22;292;48.800;9.216;2023-08-12T01:51:04;23.50;70.30
610;DHT22;292;48.800;9.216;2023-08-12T01:53:31;23.50;70.50
610;DHT22;292;48.800;9.216;2023-08-12T01:55:59;23.50;70.50
610;DHT22;292;48.800;9.216;2023-08-12T01:58:26;23.50;70.50
610;DHT22;292;48.800;9.216;2023-08-12T02:00:53;23.50;70.60
610;DHT22;292;48.800;9.216;2023-08-12T02:03:20;23.40;70.80
610;DHT22;292;48.800;9.216;2023-08-12T02:05:47;23.40;70.90
610;DHT22;292;48.800;9.216;2023-08-12T02:08:14;23.30;71.10
610;DHT22;292;48.800;9.216;2023-08-12T02:10:41;23.30;71.20
610;DHT22;292;48.800;9.216;2023-08-12T02:13:10;23.20;71.30
610;DHT22;292;48.800;9.216;2023-08-12T02:15:37;23.20;71.30
610;DHT22;292;48.800;9.216;2023-08-12T02:18:04;23.20;71.50
610;DHT22;292;48.800;9.216;2023-08-12T02:20:31;23.20;71.60
610;DHT22;292;48.800;9.216;2023-08-12T02:22:58;23.10;71.80
610;DHT22;292;48.800;9.216;2023-08-12T02:25:25;23.10;71.90
610;DHT22;292;48.800;9.216;2023-08-12T02:27:52;23.00;71.90
610;DHT22;292;48.800;9.216;2023-08-12T02:30:21;23.00;72.10
610;DHT22;292;48.800;9.216;2023-08-12T02:32:48;23.00;71.90
610;DHT22;292;48.800;9.216;2023-08-12T02:35:15;23.00;72.10
610;DHT22;292;48.800;9.216;2023-08-12T02:37:42;23.00;72.20
610;DHT22;292;48.800;9.216;2023-08-12T02:40:10;23.00;72.20
610;DHT22;292;48.800;9.216;2023-08-12T02:42:37;23.00;72.20
610;DHT22;292;48.800;9.216;2023-08-12T02:45:05;23.00;72.50
610;DHT22;292;48.800;9.216;2023-08-12T02:47:34;23.00;72.50
610;DHT22;292;48.800;9.216;2023-08-12T02:50:00;23.00;72.50
610;DHT22;292;48.800;9.216;2023-08-12T02:52:28;23.00;72.50
610;DHT22;292;48.800;9.216;2023-08-12T02:54:55;23.00;72.50
610;DHT22;292;48.800;9.216;2023-08-12T02:57:22;23.00;72.40
610;DHT22;292;48.800;9.216;2023-08-12T02:59:49;23.00;72.50
610;DHT22;292;48.800;9.216;2023-08-12T03:02:16;22.90;72.50
610;DHT22;292;48.800;9.216;2023-08-12T03:04:44;22.90;72.50
610;DHT22;292;48.800;9.216;2023-08-12T03:07:11;22.90;72.60
610;DHT22;292;48.800;9.216;2023-08-12T03:09:38;22.90;72.80
610;DHT22;292;48.800;9.216;2023-08-12T03:12:06;22.90;72.80
610;DHT22;292;48.800;9.216;2023-08-12T03:14:33;22.90;72.80
610;DHT22;292;48.800;9.216;2023-08-12T03:17:00;22.90;72.80
610;DHT22;292;48.800;9.216;2023-08-12T03:19:27;22.80;72.90
610;DHT22;292;48.800;9.216;2023-08-12T03:21:55;22.80;73.10
610;DHT22;292;48.800;9.216;2023-08-12T03:24:22;22.80;73.10
610;DHT22;292;48.800;9.216;2023-08-12T03:26:49;22.80;73.10
610;DHT22;292;48.800;9.216;2023-08-12T03:29:16;22.80;73.10
610;DHT22;292;48.800;9.216;2023-08-12T03:31:43;22.80;73.20
610;DHT22;292;48.800;9.216;2023-08-12T03:34:10;22.80;73.20
610;DHT22;292;48.800;9.216;2023-08-12T03:36:37;22.80;73.20
610;DHT22;292;48.800;9.216;2023-08-12T03:39:06;22.80;73.10
610;DHT22;292;48.800;9.216;2023-08-12T03:41:33;22.80;73.20
610;DHT22;292;48.800;9.216;2023-08-12T03:44:00;22.80;73.20
610;DHT22;292;48.800;9.216;2023-08-12T03:46:27;22.80;73.20
610;DHT22;292;48.800;9.216;2023-08-12T03:48:54;22.90;73.20
610;DHT22;292;48.800;9.216;2023-08-12T03:51:20;22.90;73.20
610;DHT22;292;48.800;9.216;2023-08-12T03:53:47;22.90;73.20
610;DHT22;292;48.800;9.216;2023-08-12T03:56:16;22.90;73.20
610;DHT22;292;48.800;9.216;2023-08-12T03:58:43;22.90;73.20
610;DHT22;292;48.800;9.216;2023-08-12T04:01:10;23.00;73.10
610;DHT22;292;48.800;9.216;2023-08-12T04:03:37;23.00;73.10
610;DHT22;292;48.800;9.216;2023-08-12T04:06:04;23.00;73.10
610;DHT22;292;48.800;9.216;2023-08-12T04:08:31;23.00;73.10
610;DHT22;292;48.800;9.216;2023-08-12T04:10:59;23.00;72.80
610;DHT22;292;48.800;9.216;2023-08-12T04:13:28;23.10;72.80
610;DHT22;292;48.800;9.216;2023-08-12T04:15:55;23.10;72.80
610;DHT22;292;48.800;9.216;2023-08-12T04:18:21;23.10;72.80
610;DHT22;292;48.800;9.216;2023-08-12T04:20:49;23.10;72.60
610;DHT22;292;48.800;9.216;2023-08-12T04:23:16;23.20;72.50
610;DHT22;292;48.800;9.216;2023-08-12T04:25:44;23.10;72.50
610;DHT22;292;48.800;9.216;2023-08-12T04:28:11;23.10;72.50
610;DHT22;292;48.800;9.216;2023-08-12T04:30:42;23.10;72.50
610;DHT22;292;48.800;9.216;2023-08-12T04:33:09;23.10;72.50
610;DHT22;292;48.800;9.216;2023-08-12T04:35:36;23.10;72.50
610;DHT22;292;48.800;9.216;2023-08-12T04:38:03;23.10;72.60
610;DHT22;292;48.800;9.216;2023-08-12T04:40:30;23.20;72.60
610;DHT22;292;48.800;9.216;2023-08-12T04:42:58;23.20;72.50
610;DHT22;292;48.800;9.216;2023-08-12T04:45:25;23.20;72.50
610;DHT22;292;48.800;9.216;2023-08-12T04:47:55;23.20;72.50
610;DHT22;292;48.800;9.216;2023-08-12T04:50:22;23.20;72.40
610;DHT22;292;48.800;9.216;2023-08-12T04:52:49;23.20;72.20
610;DHT22;292;48.800;9.216;2023-08-12T04:55:16;23.20;72.20
610;DHT22;292;48.800;9.216;2023-08-12T04:57:44;23.20;72.40
610;DHT22;292;48.800;9.216;2023-08-12T05:00:11;23.20;72.40
610;DHT22;292;48.800;9.216;2023-08-12T05:02:39;23.20;72.40
610;DHT22;292;48.800;9.216;2023-08-12T05:05:08;23.20;72.40
610;DHT22;292;48.800;9.216;2023-08-12T05:07:35;23.20;72.40
610;DHT22;292;48.800;9.216;2023-08-12T05:10:02;23.20;72.20
610;DHT22;292;48.800;9.216;2023-08-12T05:12:30;23.20;72.20
610;DHT22;292;48.800;9.216;2023-08-12T05:14:57;23.20;72.40
610;DHT22;292;48.800;9.216;2023-08-12T05:17:24;23.20;72.40
610;DHT22;292;48.800;9.216;2023-08-12T05:19:51;23.20;72.40
610;DHT22;292;48.800;9.216;2023-08-12T05:22:19;23.20;72.60
610;DHT22;292;48.800;9.216;2023-08-12T05:24:46;23.20;72.90
610;DHT22;292;48.800;9.216;2023-08-12T05:27:13;23.20;73.20
610;DHT22;292;48.800;9.216;2023-08-12T05:29:40;23.10;73.40
610;DHT22;292;48.800;9.216;2023-08-12T05:32:07;23.20;73.50
610;DHT22;292;48.800;9.216;2023-08-12T05:34:34;23.20;73.40
610;DHT22;292;48.800;9.216;2023-08-12T05:37:01;23.20;73.40
610;DHT22;292;48.800;9.216;2023-08-12T05:39:29;23.10;73.70
610;DHT22;292;48.800;9.216;2023-08-12T05:41:56;23.10;73.80
610;DHT22;292;48.800;9.216;2023-08-12T05:44:23;23.10;73.80
610;DHT22;292;48.800;9.216;2023-08-12T05:46:50;23.10;73.90
610;DHT22;292;48.800;9.216;2023-08-12T05:49:17;23.10;74.10
610;DHT22;292;48.800;9.216;2023-08-12T05:51:44;23.10;74.40
610;DHT22;292;48.800;9.216;2023-08-12T05:54:11;23.20;74.70
610;DHT22;292;48.800;9.216;2023-08-12T05:56:40;23.20;74.80
610;DHT22;292;48.800;9.216;2023-08-12T05:59:06;23.10;75.10
610;DHT22;292;48.800;9.216;2023-08-12T06:01:33;23.10;75.20
610;DHT22;292;48.800;9.216;2023-08-12T06:04:00;23.10;75.20
610;DHT22;292;48.800;9.216;2023-08-12T06:06:27;23.20;75.40
610;DHT22;292;48.800;9.216;2023-08-12T06:08:54;23.20;75.20
610;DHT22;292;48.800;9.216;2023-08-12T06:11:21;23.20;75.00
610;DHT22;292;48.800;9.216;2023-08-12T06:13:50;23.20;75.20
610;DHT22;292;48.800;9.216;2023-08-12T06:16:17;23.20;75.20
610;DHT22;292;48.800;9.216;2023-08-12T06:18:44;23.20;75.20
610;DHT22;292;48.800;9.216;2023-08-12T06:21:11;23.20;75.40
610;DHT22;292;48.800;9.216;2023-08-12T06:23:37;23.20;75.70
610;DHT22;292;48.800;9.216;2023-08-12T06:26:04;23.20;75.80
610;DHT22;292;48.800;9.216;2023-08-12T06:28:31;23.30;75.80
610;DHT22;292;48.800;9.216;2023-08-12T06:31:00;23.30;75.70
610;DHT22;292;48.800;9.216;2023-08-12T06:33:27;23.30;75.50
610;DHT22;292;48.800;9.216;2023-08-12T06:35:54;23.30;75.00
610;DHT22;292;48.800;9.216;2023-08-12T06:38:21;23.30;74.70
610;DHT22;292;48.800;9.216;2023-08-12T06:40:47;23.40;74.70
610;DHT22;292;48.800;9.216;2023-08-12T06:43:15;23.40;74.70
610;DHT22;292;48.800;9.216;2023-08-12T06:45:42;23.50;74.50
610;DHT22;292;48.800;9.216;2023-08-12T06:48:10;23.50;74.50
610;DHT22;292;48.800;9.216;2023-08-12T06:50:37;23.50;74.50
610;DHT22;292;48.800;9.216;2023-08-12T06:53:04;23.50;74.50
610;DHT22;292;48.800;9.216;2023-08-12T06:55:31;23.50;74.80
610;DHT22;292;48.800;9.216;2023-08-12T06:57:59;23.50;74.70
610;DHT22;292;48.800;9.216;2023-08-12T07:00:26;23.50;74.70
610;DHT22;292;48.800;9.216;2023-08-12T07:02:53;23.50;74.50
610;DHT22;292;48.800;9.216;2023-08-12T07:05:22;23.60;74.40
610;DHT22;292;48.800;9.216;2023-08-12T07:07:49;23.60;74.50
610;DHT22;292;48.800;9.216;2023-08-12T07:10:16;23.70;74.40
610;DHT22;292;48.800;9.216;2023-08-12T07:12:43;23.70;74.40
610;DHT22;292;48.800;9.216;2023-08-12T07:15:10;23.80;74.40
610;DHT22;292;48.800;9.216;2023-08-12T07:17:37;23.80;74.40
610;DHT22;292;48.800;9.216;2023-08-12T07:20:06;23.90;74.50
610;DHT22;292;48.800;9.216;2023-08-12T07:22:34;23.90;74.40
610;DHT22;292;48.800;9.216;2023-08-12T07:25:04;24.00;74.10
610;DHT22;292;48.800;9.216;2023-08-12T07:27:33;24.10;73.80
610;DHT22;292;48.800;9.216;2023-08-12T07:30:00;24.20;73.50
610;DHT22;292;48.800;9.216;2023-08-12T07:32:28;24.30;72.90
610;DHT22;292;48.800;9.216;2023-08-12T07:34:55;24.30;72.60
610;DHT22;292;48.800;9.216;2023-08-12T07:37:22;24.30;72.50
610;DHT22;292;48.800;9.216;2023-08-12T07:39:51;24.40;72.40
610;DHT22;292;48.800;9.216;2023-08-12T07:42:18;24.40;72.20
610;DHT22;292;48.800;9.216;2023-08-12T07:44:45;24.50;71.90
610;DHT22;292;48.800;9.216;2023-08-12T07:47:14;24.50;71.90
610;DHT22;292;48.800;9.216;2023-08-12T07:49:42;24.60;71.80
610;DHT22;292;48.800;9.216;2023-08-12T07:52:10;24.70;71.50
610;DHT22;292;48.800;9.216;2023-08-12T07:54:37;24.80;71.30
610;DHT22;292;48.800;9.216;2023-08-12T07:57:05;24.90;71.10
610;DHT22;292;48.800;9.216;2023-08-12T07:59:32;25.00;70.50
610;DHT22;292;48.800;9.216;2023-08-12T08:01:59;25.10;70.30
610;DHT22;292;48.800;9.216;2023-08-12T08:04:26;25.20;69.90
610;DHT22;292;48.800;9.216;2023-08-12T08:06:53;25.30;69.60
610;DHT22;292;48.800;9.216;2023-08-12T08:09:21;25.40;69.30
610;DHT22;292;48.800;9.216;2023-08-12T08:11:48;25.60;69.00
610;DHT22;292;48.800;9.216;2023-08-12T08:14:16;25.70;68.50
610;DHT22;292;48.800;9.216;2023-08-12T08:16:43;25.80;67.60
610;DHT22;292;48.800;9.216;2023-08-12T08:19:10;25.90;67.20
610;DHT22;292;48.800;9.216;2023-08-12T08:21:37;26.00;66.70
610;DHT22;292;48.800;9.216;2023-08-12T08:24:05;26.10;66.20
610;DHT22;292;48.800;9.216;2023-08-12T08:26:32;26.20;65.90
610;DHT22;292;48.800;9.216;2023-08-12T08:28:59;26.30;65.40
610;DHT22;292;48.800;9.216;2023-08-12T08:31:28;26.40;64.60
610;DHT22;292;48.800;9.216;2023-08-12T08:33:55;26.50;64.10
610;DHT22;292;48.800;9.216;2023-08-12T08:36:22;26.60;63.60
610;DHT22;292;48.800;9.216;2023-08-12T08:38:49;26.70;63.30
610;DHT22;292;48.800;9.216;2023-08-12T08:41:16;26.70;63.30
610;DHT22;292;48.800;9.216;2023-08-12T08:43:44;26.80;63.30
610;DHT22;292;48.800;9.216;2023-08-12T08:46:16;26.90;63.30
610;DHT22;292;48.800;9.216;2023-08-12T08:48:45;27.00;63.10
610;DHT22;292;48.800;9.216;2023-08-12T08:51:13;27.10;62.50
610;DHT22;292;48.800;9.216;2023-08-12T08:53:41;27.30;62.10
610;DHT22;292;48.800;9.216;2023-08-12T08:56:08;27.40;61.70
610;DHT22;292;48.800;9.216;2023-08-12T08:58:42;27.40;61.50
610;DHT22;292;48.800;9.216;2023-08-12T09:01:10;27.50;61.40
610;DHT22;292;48.800;9.216;2023-08-12T09:03:38;27.60;61.40
610;DHT22;292;48.800;9.216;2023-08-12T09:06:07;27.60;61.20
610;DHT22;292;48.800;9.216;2023-08-12T09:08:36;27.70;61.00
610;DHT22;292;48.800;9.216;2023-08-12T09:11:04;27.80;60.50
610;DHT22;292;48.800;9.216;2023-08-12T09:13:31;27.90;60.10
610;DHT22;292;48.800;9.216;2023-08-12T09:15:58;28.00;59.80
610;DHT22;292;48.800;9.216;2023-08-12T09:18:26;28.10;59.70
610;DHT22;292;48.800;9.216;2023-08-12T09:20:56;28.20;59.40
610;DHT22;292;48.800;9.216;2023-08-12T09:23:26;28.40;58.80
610;DHT22;292;48.800;9.216;2023-08-12T09:25:53;28.60;58.50
610;DHT22;292;48.800;9.216;2023-08-12T09:28:20;28.70;58.00
610;DHT22;292;48.800;9.216;2023-08-12T09:30:50;28.80;57.60
610;DHT22;292;48.800;9.216;2023-08-12T09:33:24;28.80;57.30
610;DHT22;292;48.800;9.216;2023-08-12T09:35:52;28.90;57.40
610;DHT22;292;48.800;9.216;2023-08-12T09:38:23;29.00;57.60
610;DHT22;292;48.800;9.216;2023-08-12T09:40:52;29.10;57.20
610;DHT22;292;48.800;9.216;2023-08-12T09:43:24;29.10;57.00
610;DHT22;292;48.800;9.216;2023-08-12T09:45:55;29.20;56.80
610;DHT22;292;48.800;9.216;2023-08-12T09:48:22;29.30;56.50
610;DHT22;292;48.800;9.216;2023-08-12T09:50:49;29.50;55.80
610;DHT22;292;48.800;9.216;2023-08-12T09:53:16;29.60;55.40
610;DHT22;292;48.800;9.216;2023-08-12T09:56:17;29.70;55.00
610;DHT22;292;48.800;9.216;2023-08-12T09:58:47;29.90;54.20
610;DHT22;292;48.800;9.216;2023-08-12T10:01:18;30.10;53.40
610;DHT22;292;48.800;9.216;2023-08-12T10:03:48;30.20;52.50
610;DHT22;292;48.800;9.216;2023-08-12T10:06:15;30.30;52.20
610;DHT22;292;48.800;9.216;2023-08-12T10:08:43;30.30;51.80
610;DHT22;292;48.800;9.216;2023-08-12T10:11:14;30.40;51.40
610;DHT22;292;48.800;9.216;2023-08-12T10:13:43;30.40;51.20
610;DHT22;292;48.800;9.216;2023-08-12T10:16:12;30.50;51.60
610;DHT22;292;48.800;9.216;2023-08-12T10:18:40;30.50;50.60
610;DHT22;292;48.800;9.216;2023-08-12T10:21:09;30.40;51.30
610;DHT22;292;48.800;9.216;2023-08-12T10:23:37;30.40;52.20
610;DHT22;292;48.800;9.216;2023-08-12T10:26:05;30.30;52.50
610;DHT22;292;48.800;9.216;2023-08-12T10:28:33;30.30;52.90
610;DHT22;292;48.800;9.216;2023-08-12T10:31:04;30.20;52.80
610;DHT22;292;48.800;9.216;2023-08-12T10:33:35;30.20;53.00
610;DHT22;292;48.800;9.216;2023-08-12T10:36:03;30.20;53.70
610;DHT22;292;48.800;9.216;2023-08-12T10:38:32;30.20;54.50
610;DHT22;292;48.800;9.216;2023-08-12T10:41:16;30.20;54.80
610;DHT22;292;48.800;9.216;2023-08-12T10:43:51;30.20;54.50
610;DHT22;292;48.800;9.216;2023-08-12T10:46:31;30.20;54.40
610;DHT22;292;48.800;9.216;2023-08-12T10:49:02;30.20;54.40
610;DHT22;292;48.800;9.216;2023-08-12T10:51:48;30.30;54.00
610;DHT22;292;48.800;9.216;2023-08-12T10:54:21;30.30;53.40
610;DHT22;292;48.800;9.216;2023-08-12T10:57:08;30.40;53.30
610;DHT22;292;48.800;9.216;2023-08-12T10:59:56;30.40;53.20
610;DHT22;292;48.800;9.216;2023-08-12T11:02:28;30.50;52.80
610;DHT22;292;48.800;9.216;2023-08-12T11:05:01;30.50;52.40
610;DHT22;292;48.800;9.216;2023-08-12T11:07:38;30.60;52.10
610;DHT22;292;48.800;9.216;2023-08-12T11:10:10;30.70;51.20
610;DHT22;292;48.800;9.216;2023-08-12T11:12:38;30.80;50.40
610;DHT22;292;48.800;9.216;2023-08-12T11:15:07;30.90;49.80
610;DHT22;292;48.800;9.216;2023-08-12T11:17:36;31.00;48.80
610;DHT22;292;48.800;9.216;2023-08-12T11:20:05;31.10;48.20
610;DHT22;292;48.800;9.216;2023-08-12T11:22:35;31.20;47.60
610;DHT22;292;48.800;9.216;2023-08-12T11:25:04;31.30;46.90
610;DHT22;292;48.800;9.216;2023-08-12T11:27:41;31.30;46.50
610;DHT22;292;48.800;9.216;2023-08-12T11:30:11;31.40;46.00
610;DHT22;292;48.800;9.216;2023-08-12T11:32:42;31.40;46.00
610;DHT22;292;48.800;9.216;2023-08-12T11:35:10;31.40;45.60
610;DHT22;292;48.800;9.216;2023-08-12T11:37:38;31.40;45.80
610;DHT22;292;48.800;9.216;2023-08-12T11:40:07;31.40;45.70
610;DHT22;292;48.800;9.216;2023-08-12T11:42:35;31.50;44.80
610;DHT22;292;48.800;9.216;2023-08-12T11:45:03;31.50;44.90
610;DHT22;292;48.800;9.216;2023-08-12T11:47:30;31.60;44.90
610;DHT22;292;48.800;9.216;2023-08-12T11:50:01;31.70;45.30
610;DHT22;292;48.800;9.216;2023-08-12T11:52:29;31.80;45.00
610;DHT22;292;48.800;9.216;2023-08-12T11:54:57;31.90;44.90
610;DHT22;292;48.800;9.216;2023-08-12T11:57:25;32.00;44.90
610;DHT22;292;48.800;9.216;2023-08-12T11:59:53;32.10;44.80
610;DHT22;292;48.800;9.216;2023-08-12T12:02:25;32.10;44.50
610;DHT22;292;48.800;9.216;2023-08-12T12:04:53;32.20;44.80
610;DHT22;292;48.800;9.216;2023-08-12T12:07:23;32.20;44.80
610;DHT22;292;48.800;9.216;2023-08-12T12:09:52;32.00;47.20
610;DHT22;292;48.800;9.216;2023-08-12T12:12:22;31.50;48.80
610;DHT22;292;48.800;9.216;2023-08-12T12:14:51;31.10;50.40
610;DHT22;292;48.800;9.216;2023-08-12T12:17:18;30.50;51.70
610;DHT22;292;48.800;9.216;2023-08-12T12:19:47;30.10;53.70
610;DHT22;292;48.800;9.216;2023-08-12T12:22:14;29.50;55.40
610;DHT22;292;48.800;9.216;2023-08-12T12:24:46;29.10;56.60
610;DHT22;292;48.800;9.216;2023-08-12T12:27:14;28.60;58.10
610;DHT22;292;48.800;9.216;2023-08-12T12:29:41;28.20;58.90
610;DHT22;292;48.800;9.216;2023-08-12T12:32:09;27.90;60.20
610;DHT22;292;48.800;9.216;2023-08-12T12:34:36;27.70;61.00
610;DHT22;292;48.800;9.216;2023-08-12T12:37:03;27.40;62.10
610;DHT22;292;48.800;9.216;2023-08-12T12:39:30;27.20;63.40
610;DHT22;292;48.800;9.216;2023-08-12T12:41:59;27.00;64.70
610;DHT22;292;48.800;9.216;2023-08-12T12:44:26;27.00;65.70
610;DHT22;292;48.800;9.216;2023-08-12T12:46:53;26.80;66.70
610;DHT22;292;48.800;9.216;2023-08-12T12:49:23;26.70;67.90
610;DHT22;292;48.800;9.216;2023-08-12T12:51:50;26.60;68.70
610;DHT22;292;48.800;9.216;2023-08-12T12:54:17;26.60;69.50
610;DHT22;292;48.800;9.216;2023-08-12T12:56:45;26.50;70.30
610;DHT22;292;48.800;9.216;2023-08-12T12:59:13;26.50;71.10
610;DHT22;292;48.800;9.216;2023-08-12T13:01:41;26.50;71.90
610;DHT22;292;48.800;9.216;2023-08-12T13:04:08;26.40;72.40
610;DHT22;292;48.800;9.216;2023-08-12T13:06:35;26.40;72.60
610;DHT22;292;48.800;9.216;2023-08-12T13:09:03;26.30;72.80
610;DHT22;292;48.800;9.216;2023-08-12T13:11:32;26.30;73.10
610;DHT22;292;48.800;9.216;2023-08-12T13:13:59;26.30;73.10
610;DHT22;292;48.800;9.216;2023-08-12T13:16:27;26.30;73.10
610;DHT22;292;48.800;9.216;2023-08-12T13:18:54;26.30;73.50
610;DHT22;292;48.800;9.216;2023-08-12T13:21:23;26.30;73.90
610;DHT22;292;48.800;9.216;2023-08-12T13:23:50;26.30;74.10
610;DHT22;292;48.800;9.216;2023-08-12T13:26:18;26.20;74.20
610;DHT22;292;48.800;9.216;2023-08-12T13:28:44;26.20;74.50
610;DHT22;292;48.800;9.216;2023-08-12T13:31:11;26.20;74.80
610;DHT22;292;48.800;9.216;2023-08-12T13:33:40;26.20;75.10
610;DHT22;292;48.800;9.216;2023-08-12T13:36:07;26.10;75.20
610;DHT22;292;48.800;9.216;2023-08-12T13:38:34;26.10;75.50
610;DHT22;292;48.800;9.216;2023-08-12T13:41:01;26.20;75.70
610;DHT22;292;48.800;9.216;2023-08-12T13:43:28;26.20;75.80
610;DHT22;292;48.800;9.216;2023-08-12T13:45:55;26.20;76.00
610;DHT22;292;48.800;9.216;2023-08-12T13:48:22;26.20;76.00
610;DHT22;292;48.800;9.216;2023-08-12T13:50:51;26.20;76.10
610;DHT22;292;48.800;9.216;2023-08-12T13:53:18;26.20;76.20
610;DHT22;292;48.800;9.216;2023-08-12T13:55:45;26.20;76.50
610;DHT22;292;48.800;9.216;2023-08-12T13:58:12;26.30;76.70
610;DHT22;292;48.800;9.216;2023-08-12T14:00:39;26.30;77.10
610;DHT22;292;48.800;9.216;2023-08-12T14:03:06;26.30;77.50
610;DHT22;292;48.800;9.216;2023-08-12T14:05:34;26.50;78.00
610;DHT22;292;48.800;9.216;2023-08-12T14:08:02;26.60;77.80
610;DHT22;292;48.800;9.216;2023-08-12T14:10:29;26.80;77.70
610;DHT22;292;48.800;9.216;2023-08-12T14:12:56;26.90;77.10
